sensor_id;sensor_type;location;lat;lon;timestamp;P1;durP1;ratioP1;P2;durP2;ratioP2
19301;SDS011;9785;59.362;12.152;2024-01-27T00:01:01;1.07;;;1.07;;
19301;SDS011;9785;59.362;12.152;2024-01-27T00:03:29;2.20;;;0.80;;
19301;SDS011;9785;59.362;12.152;2024-01-27T00:05:58;0.80;;;0.80;;
19301;SDS011;9785;59.362;12.152;2024-01-27T00:08:27;0.70;;;0.70;;
19301;SDS011;9785;59.362;12.152;2024-01-27T00:10:55;1.17;;;1.07;;
19301;SDS011;9785;59.362;12.152;2024-01-27T00:13:24;0.90;;;0.90;;
19301;SDS011;9785;59.362;12.152;2024-01-27T00:15:52;0.80;;;0.80;;
19301;SDS011;9785;59.362;12.152;2024-01-27T00:18:23;0.70;;;0.70;;
19301;SDS011;9785;59.362;12.152;2024-01-27T00:20:52;0.90;;;0.90;;
19301;SDS011;9785;59.362;12.152;2024-01-27T00:23:21;2.33;;;1.07;;
19301;SDS011;9785;59.362;12.152;2024-01-27T00:25:49;1.87;;;1.20;;
19301;SDS011;9785;59.362;12.152;2024-01-27T00:28:18;0.80;;;0.80;;
19301;SDS011;9785;59.362;12.152;2024-01-27T00:30:46;0.90;;;0.90;;
19301;SDS011;9785;59.362;12.152;2024-01-27T00:33:15;0.90;;;0.90;;
19301;SDS011;9785;59.362;12.152;2024-01-27T00:35:45;1.87;;;1.10;;
19301;SDS011;9785;59.362;12.152;2024-01-27T00:38:13;2.10;;;0.80;;
19301;SDS011;9785;59.362;12.152;2024-01-27T00:40:42;1.43;;;1.20;;
19301;SDS011;9785;59.362;12.152;2024-01-27T00:43:10;1.50;;;1.10;;
19301;SDS011;9785;59.362;12.152;2024-01-27T00:45:39;5.07;;;0.90;;
19301;SDS011;9785;59.362;12.152;2024-01-27T00:48:07;0.87;;;0.87;;
19301;SDS011;9785;59.362;12.152;2024-01-27T00:50:37;1.83;;;1.13;;
19301;SDS011;9785;59.362;12.152;2024-01-27T00:53:07;2.83;;;1.50;;
19301;SDS011;9785;59.362;12.152;2024-01-27T00:55:35;2.77;;;1.20;;
19301;SDS011;9785;59.362;12.152;2024-01-27T00:58:04;1.37;;;1.17;;
19301;SDS011;9785;59.362;12.152;2024-01-27T01:00:33;0.87;;;0.83;;
19301;SDS011;9785;59.362;12.152;2024-01-27T01:03:01;1.43;;;1.00;;
19301;SDS011;9785;59.362;12.152;2024-01-27T01:05:30;1.97;;;1.23;;
19301;SDS011;9785;59.362;12.152;2024-01-27T01:07:58;2.63;;;1.10;;
19301;SDS011;9785;59.362;12.152;2024-01-27T01:10:28;1.20;;;1.10;;
19301;SDS011;9785;59.362;12.152;2024-01-27T01:12:58;1.53;;;1.10;;
19301;SDS011;9785;59.362;12.152;2024-01-27T01:15:26;1.60;;;1.10;;
19301;SDS011;9785;59.362;12.152;2024-01-27T01:17:56;1.77;;;1.00;;
19301;SDS011;9785;59.362;12.152;2024-01-27T01:20:25;2.17;;;1.23;;
19301;SDS011;9785;59.362;12.152;2024-01-27T01:22:54;1.70;;;1.10;;
19301;SDS011;9785;59.362;12.152;2024-01-27T01:25:22;1.20;;;1.10;;
19301;SDS011;9785;59.362;12.152;2024-01-27T01:27:52;1.73;;;1.20;;
19301;SDS011;9785;59.362;12.152;2024-01-27T01:30:21;1.13;;;1.13;;
19301;SDS011;9785;59.362;12.152;2024-01-27T01:32:49;1.13;;;1.10;;
19301;SDS011;9785;59.362;12.152;2024-01-27T01:35:18;2.83;;;1.20;;
19301;SDS011;9785;59.362;12.152;2024-01-27T01:37:47;1.43;;;1.33;;
19301;SDS011;9785;59.362;12.152;2024-01-27T01:40:16;3.33;;;1.00;;
19301;SDS011;9785;59.362;12.152;2024-01-27T01:42:49;1.77;;;0.97;;
19301;SDS011;9785;59.362;12.152;2024-01-27T01:45:20;2.93;;;0.87;;
19301;SDS011;9785;59.362;12.152;2024-01-27T01:47:48;1.27;;;1.00;;
19301;SDS011;9785;59.362;12.152;2024-01-27T01:50:17;1.40;;;1.03;;
19301;SDS011;9785;59.362;12.152;2024-01-27T01:52:46;2.30;;;1.10;;
19301;SDS011;9785;59.362;12.152;2024-01-27T01:55:15;1.10;;;1.00;;
19301;SDS011;9785;59.362;12.152;2024-01-27T01:57:44;3.57;;;1.00;;
19301;SDS011;9785;59.362;12.152;2024-01-27T02:00:13;1.73;;;0.97;;
19301;SDS011;9785;59.362;12.152;2024-01-27T02:02:44;1.10;;;1.10;;
19301;SDS011;9785;59.362;12.152;2024-01-27T02:05:13;1.67;;;1.00;;
19301;SDS011;9785;59.362;12.152;2024-01-27T02:07:41;0.90;;;0.90;;
19301;SDS011;9785;59.362;12.152;2024-01-27T02:10:12;1.00;;;1.00;;
19301;SDS011;9785;59.362;12.152;2024-01-27T02:12:42;2.47;;;0.93;;
19301;SDS011;9785;59.362;12.152;2024-01-27T02:15:11;0.93;;;0.93;;
19301;SDS011;9785;59.362;12.152;2024-01-27T02:17:40;1.73;;;0.80;;
19301;SDS011;9785;59.362;12.152;2024-01-27T02:20:11;3.33;;;1.10;;
19301;SDS011;9785;59.362;12.152;2024-01-27T02:22:39;2.63;;;1.00;;
19301;SDS011;9785;59.362;12.152;2024-01-27T02:25:09;3.60;;;0.90;;
19301;SDS011;9785;59.362;12.152;2024-01-27T02:27:38;1.83;;;0.90;;
19301;SDS011;9785;59.362;12.152;2024-01-27T02:30:07;3.30;;;0.90;;
19301;SDS011;9785;59.362;12.152;2024-01-27T02:32:36;1.60;;;1.07;;
19301;SDS011;9785;59.362;12.152;2024-01-27T02:35:05;3.17;;;1.10;;
19301;SDS011;9785;59.362;12.152;2024-01-27T02:37:34;2.43;;;0.90;;
19301;SDS011;9785;59.362;12.152;2024-01-27T02:40:02;1.10;;;0.90;;
19301;SDS011;9785;59.362;12.152;2024-01-27T02:42:33;2.57;;;0.80;;
19301;SDS011;9785;59.362;12.152;2024-01-27T02:45:02;0.80;;;0.80;;
19301;SDS011;9785;59.362;12.152;2024-01-27T02:47:31;1.03;;;0.80;;
19301;SDS011;9785;59.362;12.152;2024-01-27T02:49:59;1.17;;;0.90;;
19301;SDS011;9785;59.362;12.152;2024-01-27T02:52:28;1.67;;;0.87;;
19301;SDS011;9785;59.362;12.152;2024-01-27T02:54:56;0.53;;;0.53;;
19301;SDS011;9785;59.362;12.152;2024-01-27T02:57:25;1.23;;;1.13;;
19301;SDS011;9785;59.362;12.152;2024-01-27T02:59:55;0.90;;;0.80;;
19301;SDS011;9785;59.362;12.152;2024-01-27T03:02:24;0.90;;;0.80;;
19301;SDS011;9785;59.362;12.152;2024-01-27T03:04:52;1.33;;;0.60;;
19301;SDS011;9785;59.362;12.152;2024-01-27T03:07:21;3.30;;;1.00;;
19301;SDS011;9785;59.362;12.152;2024-01-27T03:09:50;1.27;;;0.70;;
19301;SDS011;9785;59.362;12.152;2024-01-27T03:12:18;4.93;;;0.73;;
19301;SDS011;9785;59.362;12.152;2024-01-27T03:14:49;2.30;;;0.70;;
19301;SDS011;9785;59.362;12.152;2024-01-27T03:17:19;1.03;;;0.70;;
19301;SDS011;9785;59.362;12.152;2024-01-27T03:19:48;4.60;;;0.90;;
19301;SDS011;9785;59.362;12.152;2024-01-27T03:22:17;2.43;;;0.80;;
19301;SDS011;9785;59.362;12.152;2024-01-27T03:24:45;1.07;;;0.73;;
19301;SDS011;9785;59.362;12.152;2024-01-27T03:27:14;2.20;;;0.93;;
19301;SDS011;9785;59.362;12.152;2024-01-27T03:29:42;3.27;;;0.70;;
19301;SDS011;9785;59.362;12.152;2024-01-27T03:32:11;0.80;;;0.80;;
19301;SDS011;9785;59.362;12.152;2024-01-27T03:34:43;3.80;;;1.00;;
19301;SDS011;9785;59.362;12.152;2024-01-27T03:37:12;2.40;;;0.77;;
19301;SDS011;9785;59.362;12.152;2024-01-27T03:39:41;1.70;;;0.67;;
19301;SDS011;9785;59.362;12.152;2024-01-27T03:42:10;1.03;;;0.70;;
19301;SDS011;9785;59.362;12.152;2024-01-27T03:44:38;0.60;;;0.60;;
19301;SDS011;9785;59.362;12.152;2024-01-27T03:47:07;0.70;;;0.60;;
19301;SDS011;9785;59.362;12.152;2024-01-27T03:49:35;0.67;;;0.67;;
19301;SDS011;9785;59.362;12.152;2024-01-27T03:52:06;1.53;;;0.60;;
19301;SDS011;9785;59.362;12.152;2024-01-27T03:54:34;0.77;;;0.70;;
19301;SDS011;9785;59.362;12.152;2024-01-27T03:57:03;2.00;;;0.50;;
19301;SDS011;9785;59.362;12.152;2024-01-27T03:59:33;0.50;;;0.50;;
19301;SDS011;9785;59.362;12.152;2024-01-27T04:02:01;0.40;;;0.40;;
19301;SDS011;9785;59.362;12.152;2024-01-27T04:04:30;0.87;;;0.60;;
19301;SDS011;9785;59.362;12.152;2024-01-27T04:06:59;1.00;;;0.80;;
19301;SDS011;9785;59.362;12.152;2024-01-27T04:09:30;3.73;;;0.70;;
19301;SDS011;9785;59.362;12.152;2024-01-27T04:11:59;1.93;;;0.77;;
19301;SDS011;9785;59.362;12.152;2024-01-27T04:14:27;2.17;;;0.73;;
19301;SDS011;9785;59.362;12.152;2024-01-27T04:16:56;0.50;;;0.50;;
19301;SDS011;9785;59.362;12.152;2024-01-27T04:19:25;0.40;;;0.40;;
19301;SDS011;9785;59.362;12.152;2024-01-27T04:21:53;0.90;;;0.70;;
19301;SDS011;9785;59.362;12.152;2024-01-27T04:24:22;2.90;;;0.70;;
19301;SDS011;9785;59.362;12.152;2024-01-27T04:26:52;0.47;;;0.43;;
19301;SDS011;9785;59.362;12.152;2024-01-27T04:29:20;1.37;;;0.70;;
19301;SDS011;9785;59.362;12.152;2024-01-27T04:31:48;1.97;;;0.73;;
19301;SDS011;9785;59.362;12.152;2024-01-27T04:34:16;0.57;;;0.57;;
19301;SDS011;9785;59.362;12.152;2024-01-27T04:36:45;0.97;;;0.60;;
19301;SDS011;9785;59.362;12.152;2024-01-27T04:39:14;2.00;;;0.80;;
19301;SDS011;9785;59.362;12.152;2024-01-27T04:41:42;1.17;;;0.70;;
19301;SDS011;9785;59.362;12.152;2024-01-27T04:44:12;0.77;;;0.70;;
19301;SDS011;9785;59.362;12.152;2024-01-27T04:46:41;0.60;;;0.60;;
19301;SDS011;9785;59.362;12.152;2024-01-27T04:49:09;0.60;;;0.60;;
19301;SDS011;9785;59.362;12.152;2024-01-27T04:51:38;3.43;;;0.60;;
19301;SDS011;9785;59.362;12.152;2024-01-27T04:54:07;1.07;;;0.50;;
19301;SDS011;9785;59.362;12.152;2024-01-27T04:56:36;1.07;;;0.67;;
19301;SDS011;9785;59.362;12.152;2024-01-27T04:59:04;1.97;;;0.90;;
19301;SDS011;9785;59.362;12.152;2024-01-27T05:01:34;2.13;;;0.57;;
19301;SDS011;9785;59.362;12.152;2024-01-27T05:04:03;1.37;;;0.80;;
19301;SDS011;9785;59.362;12.152;2024-01-27T05:06:32;0.97;;;0.50;;
19301;SDS011;9785;59.362;12.152;2024-01-27T05:09:00;1.67;;;0.60;;
19301;SDS011;9785;59.362;12.152;2024-01-27T05:11:29;1.67;;;0.43;;
19301;SDS011;9785;59.362;12.152;2024-01-27T05:13:58;1.33;;;0.60;;
19301;SDS011;9785;59.362;12.152;2024-01-27T05:16:27;1.57;;;0.70;;
19301;SDS011;9785;59.362;12.152;2024-01-27T05:18:57;1.70;;;0.40;;
19301;SDS011;9785;59.362;12.152;2024-01-27T05:21:26;0.50;;;0.50;;
19301;SDS011;9785;59.362;12.152;2024-01-27T05:23:55;0.60;;;0.60;;
19301;SDS011;9785;59.362;12.152;2024-01-27T05:26:23;2.20;;;0.30;;
19301;SDS011;9785;59.362;12.152;2024-01-27T05:28:52;1.40;;;0.50;;
19301;SDS011;9785;59.362;12.152;2024-01-27T05:31:21;0.60;;;0.60;;
19301;SDS011;9785;59.362;12.152;2024-01-27T05:33:50;1.33;;;0.50;;
19301;SDS011;9785;59.362;12.152;2024-01-27T05:36:20;1.73;;;0.60;;
19301;SDS011;9785;59.362;12.152;2024-01-27T05:38:49;2.63;;;0.40;;
19301;SDS011;9785;59.362;12.152;2024-01-27T05:41:18;3.10;;;0.60;;
19301;SDS011;9785;59.362;12.152;2024-01-27T05:43:46;1.37;;;0.43;;
19301;SDS011;9785;59.362;12.152;2024-01-27T05:46:15;1.43;;;0.50;;
19301;SDS011;9785;59.362;12.152;2024-01-27T05:48:43;3.50;;;0.80;;
19301;SDS011;9785;59.362;12.152;2024-01-27T05:51:12;2.90;;;0.30;;
19301;SDS011;9785;59.362;12.152;2024-01-27T05:53:42;1.90;;;0.80;;
19301;SDS011;9785;59.362;12.152;2024-01-27T05:56:10;0.50;;;0.50;;
19301;SDS011;9785;59.362;12.152;2024-01-27T05:58:39;1.00;;;0.40;;
19301;SDS011;9785;59.362;12.152;2024-01-27T06:01:07;2.63;;;0.50;;
19301;SDS011;9785;59.362;12.152;2024-01-27T06:03:36;1.30;;;0.67;;
19301;SDS011;9785;59.362;12.152;2024-01-27T06:06:05;1.83;;;0.57;;
19301;SDS011;9785;59.362;12.152;2024-01-27T06:08:34;3.67;;;0.70;;
19301;SDS011;9785;59.362;12.152;2024-01-27T06:11:04;0.70;;;0.60;;
19301;SDS011;9785;59.362;12.152;2024-01-27T06:13:35;3.73;;;0.70;;
19301;SDS011;9785;59.362;12.152;2024-01-27T06:16:07;1.00;;;0.53;;
19301;SDS011;9785;59.362;12.152;2024-01-27T06:18:36;2.73;;;0.50;;
19301;SDS011;9785;59.362;12.152;2024-01-27T06:21:05;1.80;;;0.50;;
19301;SDS011;9785;59.362;12.152;2024-01-27T06:23:35;2.57;;;0.63;;
19301;SDS011;9785;59.362;12.152;2024-01-27T06:26:05;1.37;;;0.50;;
19301;SDS011;9785;59.362;12.152;2024-01-27T06:28:34;5.03;;;0.70;;
19301;SDS011;9785;59.362;12.152;2024-01-27T06:31:03;3.60;;;0.60;;
19301;SDS011;9785;59.362;12.152;2024-01-27T06:33:32;3.60;;;0.53;;
19301;SDS011;9785;59.362;12.152;2024-01-27T06:36:00;2.83;;;0.40;;
19301;SDS011;9785;59.362;12.152;2024-01-27T06:38:29;1.60;;;0.57;;
19301;SDS011;9785;59.362;12.152;2024-01-27T06:40:58;1.37;;;0.50;;
19301;SDS011;9785;59.362;12.152;2024-01-27T06:43:28;5.43;;;0.70;;
19301;SDS011;9785;59.362;12.152;2024-01-27T06:45:56;1.17;;;0.67;;
19301;SDS011;9785;59.362;12.152;2024-01-27T06:48:25;1.00;;;0.57;;
19301;SDS011;9785;59.362;12.152;2024-01-27T06:50:54;5.00;;;1.30;;
19301;SDS011;9785;59.362;12.152;2024-01-27T06:53:22;2.43;;;1.30;;
19301;SDS011;9785;59.362;12.152;2024-01-27T06:55:51;5.17;;;1.27;;
19301;SDS011;9785;59.362;12.152;2024-01-27T06:58:19;5.37;;;1.17;;
19301;SDS011;9785;59.362;12.152;2024-01-27T07:00:49;4.97;;;1.03;;
19301;SDS011;9785;59.362;12.152;2024-01-27T07:03:18;2.60;;;0.80;;
19301;SDS011;9785;59.362;12.152;2024-01-27T07:05:46;2.30;;;0.63;;
19301;SDS011;9785;59.362;12.152;2024-01-27T07:08:15;2.30;;;0.60;;
19301;SDS011;9785;59.362;12.152;2024-01-27T07:10:44;1.87;;;0.57;;
19301;SDS011;9785;59.362;12.152;2024-01-27T07:13:12;3.90;;;0.70;;
19301;SDS011;9785;59.362;12.152;2024-01-27T07:15:41;3.67;;;0.87;;
19301;SDS011;9785;59.362;12.152;2024-01-27T07:18:11;6.00;;;0.77;;
19301;SDS011;9785;59.362;12.152;2024-01-27T07:20:41;5.67;;;0.83;;
19301;SDS011;9785;59.362;12.152;2024-01-27T07:23:10;9.77;;;1.00;;
19301;SDS011;9785;59.362;12.152;2024-01-27T07:25:39;3.70;;;1.03;;
19301;SDS011;9785;59.362;12.152;2024-01-27T07:28:07;9.40;;;1.03;;
19301;SDS011;9785;59.362;12.152;2024-01-27T07:30:36;1.07;;;0.60;;
19301;SDS011;9785;59.362;12.152;2024-01-27T07:43:35;4.63;;;0.70;;
19301;SDS011;9785;59.362;12.152;2024-01-27T07:46:04;6.53;;;1.03;;
19301;SDS011;9785;59.362;12.152;2024-01-27T07:48:32;8.47;;;0.83;;
19301;SDS011;9785;59.362;12.152;2024-01-27T07:51:01;8.13;;;1.20;;
19301;SDS011;9785;59.362;12.152;2024-01-27T07:53:30;8.53;;;1.17;;
19301;SDS011;9785;59.362;12.152;2024-01-27T07:55:58;12.30;;;1.37;;
19301;SDS011;9785;59.362;12.152;2024-01-27T07:58:30;4.43;;;1.13;;
19301;SDS011;9785;59.362;12.152;2024-01-27T08:00:59;1.97;;;1.27;;
19301;SDS011;9785;59.362;12.152;2024-01-27T08:03:28;4.47;;;0.70;;
19301;SDS011;9785;59.362;12.152;2024-01-27T08:05:57;2.83;;;1.40;;
19301;SDS011;9785;59.362;12.152;2024-01-27T08:08:25;10.00;;;1.17;;
19301;SDS011;9785;59.362;12.152;2024-01-27T08:10:54;7.07;;;1.10;;
19301;SDS011;9785;59.362;12.152;2024-01-27T08:13:23;3.00;;;0.90;;
19301;SDS011;9785;59.362;12.152;2024-01-27T08:15:51;6.80;;;0.80;;
19301;SDS011;9785;59.362;12.152;2024-01-27T08:18:21;18.17;;;1.40;;
19301;SDS011;9785;59.362;12.152;2024-01-27T08:20:50;4.50;;;1.00;;
19301;SDS011;9785;59.362;12.152;2024-01-27T08:23:18;5.70;;;1.27;;
19301;SDS011;9785;59.362;12.152;2024-01-27T08:25:47;7.33;;;1.20;;
19301;SDS011;9785;59.362;12.152;2024-01-27T08:28:19;2.83;;;0.83;;
19301;SDS011;9785;59.362;12.152;2024-01-27T08:30:47;5.97;;;1.17;;
19301;SDS011;9785;59.362;12.152;2024-01-27T08:33:16;5.77;;;1.10;;
19301;SDS011;9785;59.362;12.152;2024-01-27T08:35:47;2.80;;;0.80;;
19301;SDS011;9785;59.362;12.152;2024-01-27T08:38:15;4.93;;;0.80;;
19301;SDS011;9785;59.362;12.152;2024-01-27T08:40:44;7.07;;;0.87;;
19301;SDS011;9785;59.362;12.152;2024-01-27T08:43:13;11.53;;;1.10;;
19301;SDS011;9785;59.362;12.152;2024-01-27T08:45:42;4.53;;;1.10;;
19301;SDS011;9785;59.362;12.152;2024-01-27T08:48:11;7.93;;;1.07;;
19301;SDS011;9785;59.362;12.152;2024-01-27T08:50:40;10.10;;;1.13;;
19301;SDS011;9785;59.362;12.152;2024-01-27T08:53:09;4.30;;;1.20;;
19301;SDS011;9785;59.362;12.152;2024-01-27T08:55:38;4.57;;;1.60;;
19301;SDS011;9785;59.362;12.152;2024-01-27T08:58:07;4.10;;;0.93;;
19301;SDS011;9785;59.362;12.152;2024-01-27T09:00:35;12.67;;;1.30;;
19301;SDS011;9785;59.362;12.152;2024-01-27T09:03:04;4.73;;;0.90;;
19301;SDS011;9785;59.362;12.152;2024-01-27T09:05:33;8.70;;;1.00;;
19301;SDS011;9785;59.362;12.152;2024-01-27T09:08:02;2.53;;;1.07;;
19301;SDS011;9785;59.362;12.152;2024-01-27T09:10:32;6.53;;;1.27;;
19301;SDS011;9785;59.362;12.152;2024-01-27T09:13:01;8.80;;;1.33;;
19301;SDS011;9785;59.362;12.152;2024-01-27T09:15:29;11.50;;;4.17;;
19301;SDS011;9785;59.362;12.152;2024-01-27T09:17:58;10.47;;;1.50;;
19301;SDS011;9785;59.362;12.152;2024-01-27T09:20:27;11.67;;;4.70;;
19301;SDS011;9785;59.362;12.152;2024-01-27T09:22:55;15.83;;;3.83;;
19301;SDS011;9785;59.362;12.152;2024-01-27T09:25:24;7.63;;;1.67;;
19301;SDS011;9785;59.362;12.152;2024-01-27T09:27:55;13.20;;;3.83;;
19301;SDS011;9785;59.362;12.152;2024-01-27T09:30:27;5.57;;;1.77;;
19301;SDS011;9785;59.362;12.152;2024-01-27T09:32:58;7.47;;;1.10;;
19301;SDS011;9785;59.362;12.152;2024-01-27T09:35:27;8.17;;;1.33;;
19301;SDS011;9785;59.362;12.152;2024-01-27T09:37:56;21.23;;;1.73;;
19301;SDS011;9785;59.362;12.152;2024-01-27T09:40:24;8.37;;;1.20;;
19301;SDS011;9785;59.362;12.152;2024-01-27T09:42:53;7.47;;;1.17;;
19301;SDS011;9785;59.362;12.152;2024-01-27T09:45:23;7.50;;;1.47;;
19301;SDS011;9785;59.362;12.152;2024-01-27T09:47:52;6.57;;;1.33;;
19301;SDS011;9785;59.362;12.152;2024-01-27T09:50:22;7.00;;;1.10;;
19301;SDS011;9785;59.362;12.152;2024-01-27T09:52:50;10.87;;;1.40;;
19301;SDS011;9785;59.362;12.152;2024-01-27T09:55:19;8.13;;;1.40;;
19301;SDS011;9785;59.362;12.152;2024-01-27T09:57:49;10.60;;;1.43;;
19301;SDS011;9785;59.362;12.152;2024-01-27T10:00:18;10.17;;;1.50;;
19301;SDS011;9785;59.362;12.152;2024-01-27T10:02:48;9.57;;;1.40;;
19301;SDS011;9785;59.362;12.152;2024-01-27T10:05:17;8.10;;;1.20;;
19301;SDS011;9785;59.362;12.152;2024-01-27T10:07:46;5.27;;;1.30;;
19301;SDS011;9785;59.362;12.152;2024-01-27T10:10:15;12.40;;;1.70;;
19301;SDS011;9785;59.362;12.152;2024-01-27T10:12:43;6.67;;;1.37;;
19301;SDS011;9785;59.362;12.152;2024-01-27T10:15:18;9.63;;;1.40;;
19301;SDS011;9785;59.362;12.152;2024-01-27T10:17:49;6.63;;;1.27;;
19301;SDS011;9785;59.362;12.152;2024-01-27T10:20:19;15.93;;;2.03;;
19301;SDS011;9785;59.362;12.152;2024-01-27T10:22:48;9.20;;;1.67;;
19301;SDS011;9785;59.362;12.152;2024-01-27T10:25:16;13.13;;;1.20;;
19301;SDS011;9785;59.362;12.152;2024-01-27T10:27:45;9.10;;;1.93;;
19301;SDS011;9785;59.362;12.152;2024-01-27T10:30:15;11.73;;;1.73;;
19301;SDS011;9785;59.362;12.152;2024-01-27T10:32:55;11.90;;;1.53;;
19301;SDS011;9785;59.362;12.152;2024-01-27T10:35:25;11.80;;;1.50;;
19301;SDS011;9785;59.362;12.152;2024-01-27T10:37:53;12.03;;;1.37;;
19301;SDS011;9785;59.362;12.152;2024-01-27T10:40:25;13.77;;;1.57;;
19301;SDS011;9785;59.362;12.152;2024-01-27T10:43:01;9.57;;;1.50;;
19301;SDS011;9785;59.362;12.152;2024-01-27T10:45:36;11.83;;;1.60;;
19301;SDS011;9785;59.362;12.152;2024-01-27T10:48:07;8.63;;;1.27;;
19301;SDS011;9785;59.362;12.152;2024-01-27T10:50:37;9.87;;;1.60;;
19301;SDS011;9785;59.362;12.152;2024-01-27T10:53:14;7.87;;;1.50;;
19301;SDS011;9785;59.362;12.152;2024-01-27T10:55:45;13.37;;;1.80;;
19301;SDS011;9785;59.362;12.152;2024-01-27T10:58:13;11.80;;;1.60;;
19301;SDS011;9785;59.362;12.152;2024-01-27T11:00:43;8.90;;;1.53;;
19301;SDS011;9785;59.362;12.152;2024-01-27T11:03:15;6.77;;;1.17;;
19301;SDS011;9785;59.362;12.152;2024-01-27T11:05:45;8.03;;;1.80;;
19301;SDS011;9785;59.362;12.152;2024-01-27T11:08:14;11.97;;;1.50;;
19301;SDS011;9785;59.362;12.152;2024-01-27T11:10:44;11.00;;;1.50;;
19301;SDS011;9785;59.362;12.152;2024-01-27T11:13:13;8.63;;;1.30;;
19301;SDS011;9785;59.362;12.152;2024-01-27T11:15:50;8.13;;;1.30;;
19301;SDS011;9785;59.362;12.152;2024-01-27T11:18:20;5.67;;;1.30;;
19301;SDS011;9785;59.362;12.152;2024-01-27T11:20:51;8.13;;;1.40;;
19301;SDS011;9785;59.362;12.152;2024-01-27T11:23:20;10.37;;;1.63;;
19301;SDS011;9785;59.362;12.152;2024-01-27T11:26:02;10.73;;;1.47;;
19301;SDS011;9785;59.362;12.152;2024-01-27T11:28:31;9.73;;;1.30;;
19301;SDS011;9785;59.362;12.152;2024-01-27T11:31:02;17.40;;;1.83;;
19301;SDS011;9785;59.362;12.152;2024-01-27T11:33:32;8.50;;;1.40;;
19301;SDS011;9785;59.362;12.152;2024-01-27T11:36:01;8.87;;;1.63;;
19301;SDS011;9785;59.362;12.152;2024-01-27T11:38:31;9.57;;;1.50;;
19301;SDS011;9785;59.362;12.152;2024-01-27T11:41:00;11.13;;;2.57;;
19301;SDS011;9785;59.362;12.152;2024-01-27T11:43:28;10.23;;;1.60;;
19301;SDS011;9785;59.362;12.152;2024-01-27T11:45:57;14.33;;;1.83;;
19301;SDS011;9785;59.362;12.152;2024-01-27T11:48:26;5.87;;;1.40;;
19301;SDS011;9785;59.362;12.152;2024-01-27T11:51:08;11.90;;;1.80;;
19301;SDS011;9785;59.362;12.152;2024-01-27T11:53:37;11.97;;;1.63;;
19301;SDS011;9785;59.362;12.152;2024-01-27T11:56:06;8.87;;;1.63;;
19301;SDS011;9785;59.362;12.152;2024-01-27T11:58:34;11.63;;;1.93;;
19301;SDS011;9785;59.362;12.152;2024-01-27T12:01:03;8.73;;;1.30;;
19301;SDS011;9785;59.362;12.152;2024-01-27T12:03:32;9.30;;;1.63;;
19301;SDS011;9785;59.362;12.152;2024-01-27T12:06:01;11.03;;;1.77;;
19301;SDS011;9785;59.362;12.152;2024-01-27T12:08:31;10.60;;;1.67;;
19301;SDS011;9785;59.362;12.152;2024-01-27T12:11:00;6.50;;;1.10;;
19301;SDS011;9785;59.362;12.152;2024-01-27T12:13:29;11.57;;;1.47;;
19301;SDS011;9785;59.362;12.152;2024-01-27T12:15:57;7.00;;;1.60;;
19301;SDS011;9785;59.362;12.152;2024-01-27T12:18:26;15.03;;;2.63;;
19301;SDS011;9785;59.362;12.152;2024-01-27T12:20:56;11.30;;;2.27;;
19301;SDS011;9785;59.362;12.152;2024-01-27T12:23:25;13.27;;;2.23;;
19301;SDS011;9785;59.362;12.152;2024-01-27T12:25:55;11.80;;;2.33;;
19301;SDS011;9785;59.362;12.152;2024-01-27T12:28:23;15.67;;;2.33;;
19301;SDS011;9785;59.362;12.152;2024-01-27T12:30:54;10.73;;;2.60;;
19301;SDS011;9785;59.362;12.152;2024-01-27T12:33:23;9.13;;;2.50;;
19301;SDS011;9785;59.362;12.152;2024-01-27T12:35:52;10.97;;;2.20;;
19301;SDS011;9785;59.362;12.152;2024-01-27T12:38:22;12.83;;;2.50;;
19301;SDS011;9785;59.362;12.152;2024-01-27T12:40:50;8.87;;;2.07;;
19301;SDS011;9785;59.362;12.152;2024-01-27T12:43:20;9.50;;;2.30;;
19301;SDS011;9785;59.362;12.152;2024-01-27T12:45:49;12.50;;;2.60;;
19301;SDS011;9785;59.362;12.152;2024-01-27T12:48:18;6.97;;;2.60;;
19301;SDS011;9785;59.362;12.152;2024-01-27T12:50:46;9.23;;;2.50;;
19301;SDS011;9785;59.362;12.152;2024-01-27T12:53:15;10.93;;;2.23;;
19301;SDS011;9785;59.362;12.152;2024-01-27T12:55:43;12.57;;;2.20;;
19301;SDS011;9785;59.362;12.152;2024-01-27T12:58:12;7.57;;;2.00;;
19301;SDS011;9785;59.362;12.152;2024-01-27T13:00:42;14.37;;;2.30;;
19301;SDS011;9785;59.362;12.152;2024-01-27T13:03:11;10.23;;;2.13;;
19301;SDS011;9785;59.362;12.152;2024-01-27T13:05:39;12.87;;;2.20;;
19301;SDS011;9785;59.362;12.152;2024-01-27T13:08:08;8.37;;;1.60;;
19301;SDS011;9785;59.362;12.152;2024-01-27T13:10:37;9.63;;;2.10;;
19301;SDS011;9785;59.362;12.152;2024-01-27T13:13:05;5.53;;;1.40;;
19301;SDS011;9785;59.362;12.152;2024-01-27T13:15:34;11.43;;;2.23;;
19301;SDS011;9785;59.362;12.152;2024-01-27T13:18:04;14.00;;;2.30;;
19301;SDS011;9785;59.362;12.152;2024-01-27T13:20:33;13.70;;;2.10;;
19301;SDS011;9785;59.362;12.152;2024-01-27T13:23:02;13.13;;;1.80;;
19301;SDS011;9785;59.362;12.152;2024-01-27T13:25:31;11.90;;;1.70;;
19301;SDS011;9785;59.362;12.152;2024-01-27T13:27:59;12.07;;;1.63;;
19301;SDS011;9785;59.362;12.152;2024-01-27T13:30:28;18.53;;;2.00;;
19301;SDS011;9785;59.362;12.152;2024-01-27T13:32:57;18.73;;;2.43;;
19301;SDS011;9785;59.362;12.152;2024-01-27T13:35:27;15.37;;;2.57;;
19301;SDS011;9785;59.362;12.152;2024-01-27T13:37:56;15.40;;;2.47;;
19301;SDS011;9785;59.362;12.152;2024-01-27T13:40:24;15.00;;;2.50;;
19301;SDS011;9785;59.362;12.152;2024-01-27T13:42:53;18.07;;;2.43;;
19301;SDS011;9785;59.362;12.152;2024-01-27T13:45:22;13.20;;;2.40;;
19301;SDS011;9785;59.362;12.152;2024-01-27T13:47:50;13.77;;;2.87;;
19301;SDS011;9785;59.362;12.152;2024-01-27T13:50:19;11.93;;;2.30;;
19301;SDS011;9785;59.362;12.152;2024-01-27T13:52:49;14.10;;;2.33;;
19301;SDS011;9785;59.362;12.152;2024-01-27T13:55:18;15.00;;;2.57;;
19301;SDS011;9785;59.362;12.152;2024-01-27T13:57:48;14.50;;;2.37;;
19301;SDS011;9785;59.362;12.152;2024-01-27T14:00:17;11.67;;;2.20;;
19301;SDS011;9785;59.362;12.152;2024-01-27T14:02:45;19.70;;;2.80;;
19301;SDS011;9785;59.362;12.152;2024-01-27T14:05:14;14.43;;;2.30;;
19301;SDS011;9785;59.362;12.152;2024-01-27T14:07:43;11.67;;;2.23;;
19301;SDS011;9785;59.362;12.152;2024-01-27T14:10:13;9.10;;;1.90;;
19301;SDS011;9785;59.362;12.152;2024-01-27T14:12:44;23.20;;;2.87;;
19301;SDS011;9785;59.362;12.152;2024-01-27T14:15:13;18.27;;;2.80;;
19301;SDS011;9785;59.362;12.152;2024-01-27T14:17:44;24.87;;;2.77;;
19301;SDS011;9785;59.362;12.152;2024-01-27T14:20:13;24.87;;;2.90;;
19301;SDS011;9785;59.362;12.152;2024-01-27T14:22:42;20.63;;;3.37;;
19301;SDS011;9785;59.362;12.152;2024-01-27T14:25:11;14.43;;;2.43;;
19301;SDS011;9785;59.362;12.152;2024-01-27T14:27:41;25.40;;;2.63;;
19301;SDS011;9785;59.362;12.152;2024-01-27T14:30:11;14.83;;;2.40;;
19301;SDS011;9785;59.362;12.152;2024-01-27T14:32:41;20.73;;;2.90;;
19301;SDS011;9785;59.362;12.152;2024-01-27T14:35:10;15.27;;;2.37;;
19301;SDS011;9785;59.362;12.152;2024-01-27T14:37:39;5.53;;;1.50;;
19301;SDS011;9785;59.362;12.152;2024-01-27T14:40:08;13.53;;;2.50;;
19301;SDS011;9785;59.362;12.152;2024-01-27T14:42:37;23.00;;;3.10;;
19301;SDS011;9785;59.362;12.152;2024-01-27T14:45:09;17.73;;;2.83;;
19301;SDS011;9785;59.362;12.152;2024-01-27T14:47:37;17.63;;;2.80;;
19301;SDS011;9785;59.362;12.152;2024-01-27T14:50:06;13.57;;;2.17;;
19301;SDS011;9785;59.362;12.152;2024-01-27T14:52:35;23.63;;;2.73;;
19301;SDS011;9785;59.362;12.152;2024-01-27T14:55:04;14.27;;;2.60;;
19301;SDS011;9785;59.362;12.152;2024-01-27T14:57:34;19.63;;;2.20;;
19301;SDS011;9785;59.362;12.152;2024-01-27T15:00:04;21.87;;;2.67;;
19301;SDS011;9785;59.362;12.152;2024-01-27T15:02:34;18.93;;;3.47;;
19301;SDS011;9785;59.362;12.152;2024-01-27T15:05:03;19.77;;;2.73;;